Time;durP1;ratioP1;P1;durP2;ratioP2;P2;SDS_P1;SDS_P2;PMS_P1;PMS_P2;Temp;Humidity;BMP_temperature;BMP_pressure;BME280_temperature;BME280_humidity;BME280_pressure;Samples;Min_cycle;Max_cycle;Signal;HPM_P1;HPM_P2
2023/04/06 00:00:49;;;;;;;6.93;5.55;;;7.40;48.50;;;;;;5082558;28;20024;-68
2023/04/06 00:03:15;;;;;;;7.38;5.55;;;7.40;48.60;;;;;;5091977;28;20443;-66
2023/04/06 00:05:41;;;;;;;8.23;5.80;;;7.40;48.80;;;;;;5087333;28;20103;-66
2023/04/06 00:08:07;;;;;;;7.72;5.63;;;7.30;49.00;;;;;;5087912;28;20536;-66
2023/04/06 00:10:32;;;;;;;7.47;5.50;;;7.30;49.00;;;;;;5075284;28;20037;-67
2023/04/06 00:12:59;;;;;;;7.05;5.15;;;7.30;49.10;;;;;;5088236;28;20059;-66
2023/04/06 00:15:25;;;;;;;8.90;5.97;;;7.40;49.10;;;;;;5083596;28;20016;-66
2023/04/06 00:17:51;;;;;;;9.85;6.38;;;7.30;49.20;;;;;;5082340;28;20386;-66
2023/04/06 00:20:17;;;;;;;9.00;5.93;;;7.30;49.40;;;;;;5080784;28;20037;-66
2023/04/06 00:22:43;;;;;;;10.10;5.57;;;7.30;49.60;;;;;;5073316;28;20097;-65
2023/04/06 00:25:10;;;;;;;9.30;6.20;;;7.30;49.70;;;;;;5080496;28;20486;-65
2023/04/06 00:27:35;;;;;;;8.15;5.63;;;7.30;49.90;;;;;;5091011;28;20085;-65
2023/04/06 00:30:02;;;;;;;9.68;6.43;;;7.20;50.00;;;;;;5084828;28;20024;-65
2023/04/06 00:32:28;;;;;;;9.60;5.65;;;7.20;50.30;;;;;;5080578;28;20016;-66
2023/04/06 00:34:53;;;;;;;9.75;5.90;;;7.20;50.50;;;;;;5076611;28;20040;-65
2023/04/06 00:37:19;;;;;;;7.03;5.28;;;7.20;50.50;;;;;;5072343;28;20020;-65
2023/04/06 00:39:45;;;;;;;8.18;5.45;;;7.10;50.60;;;;;;5075855;28;20034;-67
2023/04/06 00:42:14;;;;;;;8.50;5.32;;;7.10;50.70;;;;;;5087520;28;20028;-66
2023/04/06 00:44:41;;;;;;;8.30;5.60;;;7.10;50.80;;;;;;5085696;28;20056;-66
2023/04/06 00:47:07;;;;;;;9.40;5.00;;;7.10;51.00;;;;;;5090882;28;20067;-66
2023/04/06 00:49:33;;;;;;;7.65;5.28;;;7.10;50.90;;;;;;5089520;28;20500;-66
2023/04/06 00:51:59;;;;;;;8.88;5.60;;;7.10;50.90;;;;;;5079075;28;20063;-67
2023/04/06 00:54:25;;;;;;;7.60;5.22;;;7.10;50.90;;;;;;5087128;28;20059;-66
2023/04/06 00:56:51;;;;;;;8.63;5.93;;;7.10;51.10;;;;;;5073950;28;20036;-66
2023/04/06 00:59:17;;;;;;;9.68;6.55;;;7.10;51.20;;;;;;5074816;28;20050;-66
2023/04/06 01:01:42;;;;;;;9.38;6.40;;;7.00;51.40;;;;;;5078716;28;20717;-65
2023/04/06 01:04:08;;;;;;;9.85;6.47;;;7.00;51.70;;;;;;5088200;28;20109;-66
2023/04/06 01:06:33;;;;;;;11.73;7.80;;;6.90;51.80;;;;;;5087063;28;20113;-67
2023/04/06 01:08:59;;;;;;;9.80;7.18;;;6.90;52.00;;;;;;5089640;28;20024;-66
2023/04/06 01:11:25;;;;;;;10.80;6.88;;;6.90;52.10;;;;;;5079028;28;20052;-65
2023/04/06 01:13:51;;;;;;;8.38;6.32;;;6.90;52.20;;;;;;5087923;28;20489;-67
2023/04/06 01:16:17;;;;;;;8.40;6.75;;;6.90;52.20;;;;;;5091090;28;20027;-65
2023/04/06 01:18:43;;;;;;;9.35;6.43;;;6.90;52.20;;;;;;5077602;28;20033;-66
2023/04/06 01:21:15;;;;;;;7.50;6.22;;;6.90;52.20;;;;;;5071009;28;20020;-65
2023/04/06 01:23:46;;;;;;;9.75;6.50;;;6.90;52.30;;;;;;5071175;28;20028;-65
2023/04/06 01:26:13;;;;;;;18.88;11.63;;;6.90;52.50;;;;;;5081182;28;20436;-66
2023/04/06 01:28:38;;;;;;;14.57;8.15;;;6.80;52.60;;;;;;5090927;28;20016;-65
2023/04/06 01:31:08;;;;;;;9.95;6.88;;;6.80;52.70;;;;;;5090639;28;20378;-66
2023/04/06 01:33:33;;;;;;;10.27;6.70;;;6.80;52.90;;;;;;5091017;28;20086;-65
2023/04/06 01:36:00;;;;;;;10.65;6.40;;;6.80;53.00;;;;;;5089948;28;20016;-66
2023/04/06 01:38:26;;;;;;;8.77;6.43;;;6.80;53.10;;;;;;5090751;28;20044;-66
2023/04/06 01:40:52;;;;;;;9.00;6.05;;;6.70;53.20;;;;;;5089680;28;20020;-65
2023/04/06 01:43:18;;;;;;;8.68;6.13;;;6.70;53.20;;;;;;5088656;28;20055;-66
2023/04/06 01:45:43;;;;;;;9.30;6.07;;;6.80;53.20;;;;;;5082945;28;20048;-65
2023/04/06 01:48:09;;;;;;;9.90;6.05;;;6.80;53.10;;;;;;5087648;28;20024;-65
2023/04/06 01:50:35;;;;;;;9.27;5.80;;;6.80;53.10;;;;;;5076074;28;20027;-67
2023/04/06 01:53:00;;;;;;;8.05;5.47;;;6.80;53.20;;;;;;5076815;28;20028;-65
2023/04/06 01:55:26;;;;;;;8.10;5.45;;;6.80;53.30;;;;;;5084873;28;20032;-67
2023/04/06 01:57:51;;;;;;;7.18;5.40;;;6.80;53.40;;;;;;5071432;28;20387;-66
2023/04/06 02:00:17;;;;;;;8.20;5.80;;;6.80;53.40;;;;;;5070957;28;20036;-67
2023/04/06 02:02:43;;;;;;;9.07;6.07;;;6.70;53.40;;;;;;5086345;28;20501;-67
2023/04/06 02:05:09;;;;;;;12.23;7.93;;;6.70;53.90;;;;;;5076941;28;20028;-70
2023/04/06 02:07:34;;;;;;;9.43;6.57;;;6.70;53.60;;;;;;5087725;28;20099;-65
2023/04/06 02:10:00;;;;;;;8.75;6.05;;;6.70;53.60;;;;;;5090324;28;20100;-67
2023/04/06 02:12:25;;;;;;;9.55;5.97;;;6.70;53.60;;;;;;5081807;28;20386;-66
2023/04/06 02:14:51;;;;;;;7.45;5.40;;;6.70;53.60;;;;;;5090171;28;20031;-66
2023/04/06 02:17:17;;;;;;;7.50;5.75;;;6.70;53.80;;;;;;5080031;28;20398;-65
2023/04/06 02:19:42;;;;;;;7.22;5.43;;;6.70;53.80;;;;;;5081319;28;20088;-66
2023/04/06 02:22:08;;;;;;;8.20;5.68;;;6.70;53.80;;;;;;5083969;28;20032;-67
2023/04/06 02:24:34;;;;;;;9.73;5.70;;;6.70;53.90;;;;;;5089817;28;20031;-65
2023/04/06 02:27:00;;;;;;;8.55;6.13;;;6.60;54.00;;;;;;5080053;28;20078;-66
2023/04/06 02:29:25;;;;;;;8.95;6.13;;;6.60;54.00;;;;;;5071029;28;20025;-66
2023/04/06 02:31:51;;;;;;;8.07;5.85;;;6.60;54.20;;;;;;5070026;28;20583;-65
2023/04/06 02:34:19;;;;;;;10.05;6.63;;;6.50;54.10;;;;;;5082181;28;20028;-66
2023/04/06 02:36:46;;;;;;;11.35;7.43;;;6.60;54.10;;;;;;5089709;28;20398;-65
2023/04/06 02:39:12;;;;;;;10.27;7.13;;;6.50;54.10;;;;;;5088473;28;20031;-65
2023/04/06 02:41:38;;;;;;;8.88;6.43;;;6.50;54.10;;;;;;5089684;28;20024;-67
2023/04/06 02:44:06;;;;;;;10.43;6.32;;;6.50;54.10;;;;;;5080246;28;20413;-65
2023/04/06 02:46:32;;;;;;;8.88;6.15;;;6.50;54.10;;;;;;5084834;28;20032;-65
2023/04/06 02:49:00;;;;;;;9.27;6.50;;;6.50;54.20;;;;;;5079150;28;20024;-64
2023/04/06 02:51:26;;;;;;;8.95;5.90;;;6.50;54.30;;;;;;5076306;28;20036;-66
2023/04/06 02:53:51;;;;;;;9.57;6.82;;;6.50;54.40;;;;;;5072668;28;20024;-65
2023/04/06 02:56:17;;;;;;;10.07;7.50;;;6.40;54.50;;;;;;5068373;28;20028;-66
2023/04/06 02:58:42;;;;;;;8.05;5.70;;;6.40;54.90;;;;;;5075475;28;20020;-65
2023/04/06 03:01:08;;;;;;;16.00;9.70;;;6.40;54.90;;;;;;5089644;28;20024;-64
2023/04/06 03:03:33;;;;;;;11.18;7.82;;;6.40;55.10;;;;;;5087084;28;20118;-64
2023/04/06 03:06:00;;;;;;;10.20;7.10;;;6.40;55.20;;;;;;5086094;28;20051;-67
2023/04/06 03:08:25;;;;;;;9.82;6.88;;;6.30;55.30;;;;;;5089244;28;20139;-67
2023/04/06 03:10:51;;;;;;;9.73;6.70;;;6.30;55.40;;;;;;5077319;28;20513;-67
2023/04/06 03:13:16;;;;;;;10.82;7.22;;;6.30;55.70;;;;;;5090646;28;20410;-66
2023/04/06 03:15:42;;;;;;;12.63;6.93;;;6.30;55.80;;;;;;5082870;28;20024;-67
2023/04/06 03:18:07;;;;;;;8.98;6.55;;;6.30;55.80;;;;;;5073158;28;20020;-67
2023/04/06 03:20:33;;;;;;;10.25;6.97;;;6.30;55.60;;;;;;5073350;28;20032;-65
2023/04/06 03:22:58;;;;;;;8.30;6.03;;;6.40;55.60;;;;;;5073280;28;20096;-65
2023/04/06 03:25:24;;;;;;;8.90;6.63;;;6.40;55.50;;;;;;5072923;28;20490;-66
2023/04/06 03:27:50;;;;;;;8.82;6.60;;;6.40;55.40;;;;;;5083530;28;20032;-67
2023/04/06 03:30:17;;;;;;;8.77;5.93;;;6.40;55.40;;;;;;5093326;28;20483;-68
2023/04/06 03:32:43;;;;;;;10.15;6.90;;;6.40;55.40;;;;;;5093364;28;20024;-66
2023/04/06 03:35:09;;;;;;;9.73;6.88;;;6.40;55.40;;;;;;5091775;28;20032;-65
2023/04/06 03:37:35;;;;;;;11.57;6.82;;;6.50;55.50;;;;;;5093361;28;20050;-66
2023/04/06 03:40:01;;;;;;;10.00;6.75;;;6.40;55.60;;;;;;5093045;28;20528;-67
2023/04/06 03:42:26;;;;;;;11.32;7.53;;;6.40;55.70;;;;;;5074172;28;20137;-67
2023/04/06 03:44:52;;;;;;;11.35;7.45;;;6.40;55.70;;;;;;5079357;28;20028;-66
2023/04/06 03:47:17;;;;;;;11.00;7.72;;;6.30;55.70;;;;;;5081395;28;20395;-66
2023/04/06 03:49:43;;;;;;;11.43;8.10;;;6.30;55.90;;;;;;5080961;28;20020;-67
2023/04/06 03:52:09;;;;;;;12.85;7.85;;;6.30;56.20;;;;;;5075426;28;20060;-66
2023/04/06 03:54:35;;;;;;;10.57;7.93;;;6.30;56.30;;;;;;5081166;28;20074;-67
2023/04/06 03:57:00;;;;;;;11.15;7.57;;;6.30;56.40;;;;;;5073699;28;20025;-66
2023/04/06 03:59:26;;;;;;;12.57;8.30;;;6.20;56.30;;;;;;5076086;28;20107;-65
2023/04/06 04:01:52;;;;;;;11.85;8.13;;;6.20;56.70;;;;;;5073658;28;20398;-67
2023/04/06 04:04:17;;;;;;;11.25;7.53;;;6.10;56.80;;;;;;5076423;28;20080;-66
2023/04/06 04:06:43;;;;;;;9.98;7.38;;;6.10;56.80;;;;;;5081818;28;20036;-66
2023/04/06 04:09:08;;;;;;;11.27;7.45;;;6.10;56.80;;;;;;5079150;28;20013;-66
2023/04/06 04:11:34;;;;;;;12.73;8.60;;;6.10;56.80;;;;;;5079104;28;20428;-68
2023/04/06 04:14:00;;;;;;;11.85;7.40;;;6.10;56.80;;;;;;5075368;28;20490;-67
2023/04/06 04:16:25;;;;;;;12.52;7.70;;;6.10;56.80;;;;;;5091242;28;20043;-66
2023/04/06 04:18:51;;;;;;;11.25;7.97;;;6.10;56.80;;;;;;5090837;28;20496;-66
2023/04/06 04:21:16;;;;;;;11.82;7.80;;;6.10;56.90;;;;;;5088548;28;20024;-66
2023/04/06 04:23:42;;;;;;;11.73;7.72;;;6.10;57.00;;;;;;5071580;28;20025;-67
2023/04/06 04:26:07;;;;;;;11.23;7.68;;;6.10;57.70;;;;;;5079274;28;20143;-66
2023/04/06 04:28:33;;;;;;;11.57;7.80;;;6.10;57.10;;;;;;5090567;28;20065;-66
2023/04/06 04:30:58;;;;;;;12.00;8.13;;;6.10;57.10;;;;;;5082217;28;20708;-66
2023/04/06 04:33:24;;;;;;;13.05;9.15;;;6.10;57.10;;;;;;5071944;28;20096;-67
2023/04/06 04:35:49;;;;;;;12.38;8.10;;;6.00;57.20;;;;;;5079959;28;20050;-66
2023/04/06 04:38:15;;;;;;;11.75;7.78;;;6.10;57.10;;;;;;5071931;28;20024;-66
2023/04/06 04:40:40;;;;;;;13.05;9.23;;;6.10;57.00;;;;;;5075100;28;20115;-66
2023/04/06 04:43:06;;;;;;;13.63;9.23;;;6.10;57.00;;;;;;5091764;28;20085;-69
2023/04/06 04:45:31;;;;;;;12.60;8.70;;;6.00;57.10;;;;;;5086921;28;20031;-66
2023/04/06 04:47:57;;;;;;;12.55;8.23;;;6.00;57.00;;;;;;5071781;28;20035;-66
2023/04/06 04:50:22;;;;;;;12.05;7.80;;;6.10;57.00;;;;;;5089431;28;20028;-66
2023/04/06 04:52:48;;;;;;;13.20;9.07;;;6.10;57.00;;;;;;5083768;28;20025;-68
2023/04/06 04:55:14;;;;;;;11.65;8.43;;;6.10;57.10;;;;;;5071513;28;20028;-66
2023/04/06 04:57:39;;;;;;;11.32;7.90;;;6.10;57.00;;;;;;5079576;28;20098;-66
2023/04/06 05:00:05;;;;;;;14.73;8.30;;;6.20;57.00;;;;;;5089902;28;20036;-68
2023/04/06 05:02:31;;;;;;;10.48;7.32;;;6.20;56.90;;;;;;5091470;28;20497;-67
2023/04/06 05:04:57;;;;;;;11.27;7.95;;;6.10;56.70;;;;;;5091895;28;20032;-68
2023/04/06 05:07:22;;;;;;;11.40;8.43;;;6.20;56.90;;;;;;5090723;28;20028;-68
2023/04/06 05:09:48;;;;;;;11.00;7.55;;;6.20;56.90;;;;;;5081916;28;20013;-67
2023/04/06 05:12:13;;;;;;;11.10;7.95;;;6.20;56.70;;;;;;5071349;28;20027;-66
2023/04/06 05:14:39;;;;;;;13.43;8.70;;;6.20;56.80;;;;;;5082088;28;20017;-67
2023/04/06 05:17:05;;;;;;;13.70;8.52;;;6.20;57.00;;;;;;5091484;28;20394;-66
2023/04/06 05:19:30;;;;;;;11.55;7.75;;;6.20;57.10;;;;;;5091437;28;20032;-64
2023/04/06 05:21:56;;;;;;;11.13;7.30;;;6.20;57.00;;;;;;5091340;28;20434;-64
2023/04/06 05:24:21;;;;;;;12.50;7.30;;;6.30;56.90;;;;;;5089340;28;20027;-67
2023/04/06 05:26:48;;;;;;;16.70;10.35;;;6.40;56.80;;;;;;5090614;28;20054;-66
2023/04/06 05:29:14;;;;;;;12.15;7.90;;;6.40;56.70;;;;;;5091044;28;20013;-65
2023/04/06 05:31:40;;;;;;;11.63;7.20;;;6.40;56.50;;;;;;5090784;28;20385;-65
2023/04/06 05:34:06;;;;;;;12.68;7.45;;;6.50;56.40;;;;;;5092265;28;20050;-65
2023/04/06 05:36:32;;;;;;;13.48;9.40;;;6.60;56.30;;;;;;5089992;28;20023;-66
2023/04/06 05:38:58;;;;;;;13.07;8.80;;;6.80;56.50;;;;;;5090851;28;20044;-66
2023/04/06 05:41:24;;;;;;;14.02;9.02;;;7.00;56.20;;;;;;5090434;28;20025;-66
2023/04/06 05:43:49;;;;;;;12.85;9.02;;;7.10;55.90;;;;;;5090873;28;20493;-66
2023/04/06 05:46:15;;;;;;;12.45;8.13;;;7.20;55.70;;;;;;5077627;28;20032;-64
2023/04/06 05:48:40;;;;;;;11.77;8.43;;;7.30;55.50;;;;;;5079034;28;20044;-67
2023/04/06 05:51:06;;;;;;;12.23;8.00;;;7.30;55.40;;;;;;5082421;28;20049;-66
2023/04/06 05:53:32;;;;;;;17.30;10.25;;;7.40;55.40;;;;;;5089997;28;20035;-65
2023/04/06 05:56:01;;;;;;;12.27;8.90;;;7.50;55.40;;;;;;5089027;28;20035;-64
2023/04/06 05:58:27;;;;;;;13.43;9.57;;;7.60;55.10;;;;;;5078873;28;20539;-66
2023/04/06 06:01:00;;;;;;;12.38;8.80;;;7.60;55.10;;;;;;5088906;28;20039;-67
2023/04/06 06:03:26;;;;;;;12.15;8.77;;;7.60;54.90;;;;;;5087314;28;20385;-66
2023/04/06 06:05:52;;;;;;;15.18;8.13;;;7.60;55.00;;;;;;5084658;28;20016;-66
2023/04/06 06:08:17;;;;;;;14.88;9.90;;;7.70;55.00;;;;;;5085770;28;20024;-65
2023/04/06 06:10:43;;;;;;;12.75;9.80;;;7.70;55.10;;;;;;5089385;28;20454;-67
2023/04/06 06:13:09;;;;;;;17.55;10.48;;;7.80;54.90;;;;;;5089874;28;20091;-65
2023/04/06 06:15:35;;;;;;;15.57;10.38;;;7.80;54.80;;;;;;5090411;28;20474;-66
2023/04/06 06:18:01;;;;;;;14.48;9.50;;;8.20;55.30;;;;;;5090228;28;20104;-66
2023/04/06 06:20:27;;;;;;;15.23;10.40;;;9.20;53.50;;;;;;5090318;28;20115;-66
2023/04/06 06:22:52;;;;;;;15.93;10.27;;;10.00;51.80;;;;;;5088970;28;20059;-66
2023/04/06 06:25:18;;;;;;;14.45;8.77;;;9.90;50.70;;;;;;5090084;28;20106;-66
2023/04/06 06:27:43;;;;;;;18.23;11.48;;;9.70;51.00;;;;;;5075308;28;20078;-66
2023/04/06 06:30:09;;;;;;;16.00;11.10;;;9.30;51.10;;;;;;5069971;28;20016;-67
2023/04/06 06:32:35;;;;;;;12.50;8.90;;;9.10;51.70;;;;;;5072732;28;20460;-69
2023/04/06 06:35:00;;;;;;;16.02;11.27;;;9.00;52.00;;;;;;5082320;28;20027;-69
2023/04/06 06:37:26;;;;;;;17.00;10.32;;;8.90;52.40;;;;;;5080988;28;20032;-68
2023/04/06 06:39:52;;;;;;;18.27;12.07;;;9.00;52.40;;;;;;5081431;28;20085;-69
2023/04/06 06:42:17;;;;;;;18.95;11.85;;;9.30;52.20;;;;;;5085139;28;20107;-68
2023/04/06 06:44:43;;;;;;;18.88;12.45;;;9.50;51.50;;;;;;5090624;28;20031;-68
2023/04/06 06:47:08;;;;;;;16.98;11.00;;;10.10;50.60;;;;;;5089350;28;20031;-68
2023/04/06 06:49:34;;;;;;;15.80;11.52;;;11.00;49.30;;;;;;5088366;28;20020;-68
2023/04/06 06:51:59;;;;;;;17.85;12.77;;;11.70;48.00;;;;;;5092813;28;20020;-67
2023/04/06 06:54:25;;;;;;;19.55;12.23;;;12.50;46.50;;;;;;5091612;28;20024;-67
2023/04/06 06:56:50;;;;;;;19.05;12.60;;;13.30;44.80;;;;;;5090998;28;20422;-67
2023/04/06 06:59:16;;;;;;;17.55;12.55;;;13.50;43.50;;;;;;5088733;28;20116;-67
2023/04/06 07:01:42;;;;;;;18.23;11.43;;;13.90;42.10;;;;;;5085128;28;20035;-66
2023/04/06 07:04:08;;;;;;;19.55;11.82;;;14.00;42.50;;;;;;5089111;28;20099;-66
2023/04/06 07:06:35;;;;;;;15.73;10.98;;;13.60;42.50;;;;;;5084909;28;20024;-66
2023/04/06 07:09:02;;;;;;;17.73;12.88;;;13.20;43.30;;;;;;5079595;28;20028;-68
2023/04/06 07:11:30;;;;;;;18.38;12.70;;;12.60;43.70;;;;;;5088954;28;20026;-66
2023/04/06 07:13:57;;;;;;;18.88;12.57;;;12.00;44.70;;;;;;5082393;28;20028;-66
2023/04/06 07:16:22;;;;;;;18.33;11.95;;;11.80;45.60;;;;;;5085976;28;20035;-66
2023/04/06 07:18:48;;;;;;;16.60;10.88;;;11.50;46.10;;;;;;5091741;28;20024;-65
2023/04/06 07:21:13;;;;;;;17.05;11.60;;;11.40;46.80;;;;;;5089451;28;20016;-67
2023/04/06 07:23:39;;;;;;;15.90;11.43;;;11.30;47.20;;;;;;5088805;28;20024;-67
2023/04/06 07:26:04;;;;;;;17.25;11.98;;;11.30;47.30;;;;;;5087028;28;20048;-65
2023/04/06 07:28:30;;;;;;;17.17;11.50;;;10.90;48.10;;;;;;5092396;28;20016;-65
2023/04/06 07:30:56;;;;;;;18.60;11.60;;;10.70;48.80;;;;;;5092356;28;20031;-65
2023/04/06 07:33:22;;;;;;;15.20;10.40;;;10.50;49.40;;;;;;5092323;28;20417;-66
2023/04/06 07:35:47;;;;;;;17.58;12.00;;;10.50;49.70;;;;;;5091246;28;20028;-67
2023/04/06 07:38:13;;;;;;;16.40;11.45;;;10.40;50.20;;;;;;5090225;28;20028;-66
2023/04/06 07:40:39;;;;;;;19.15;12.68;;;10.40;50.30;;;;;;5090788;28;20040;-66
2023/04/06 07:43:04;;;;;;;19.83;12.55;;;10.30;50.40;;;;;;5091527;28;20028;-65
2023/04/06 07:45:30;;;;;;;17.00;12.35;;;10.40;50.50;;;;;;5089918;28;20036;-66
2023/04/06 07:47:56;;;;;;;17.92;11.57;;;10.60;50.10;;;;;;5090599;28;20032;-68
2023/04/06 07:50:21;;;;;;;17.30;12.25;;;10.90;49.70;;;;;;5089594;28;20046;-66
2023/04/06 07:52:47;;;;;;;17.05;10.85;;;11.10;49.20;;;;;;5089632;28;20115;-65
2023/04/06 07:55:12;;;;;;;22.10;12.07;;;11.00;49.30;;;;;;5085385;28;20394;-67
2023/04/06 07:57:38;;;;;;;13.90;9.90;;;10.70;49.50;;;;;;5088292;28;20016;-66
2023/04/06 08:00:04;;;;;;;15.45;11.43;;;10.70;50.00;;;;;;5084175;28;20099;-65
2023/04/06 08:02:32;;;;;;;19.42;12.60;;;10.60;50.80;;;;;;5088195;28;20024;-67
2023/04/06 08:04:57;;;;;;;17.88;12.93;;;10.50;50.40;;;;;;5082391;28;20074;-66
2023/04/06 08:07:23;;;;;;;17.13;12.13;;;10.30;50.50;;;;;;5087853;28;20032;-65
2023/04/06 08:09:49;;;;;;;17.38;12.05;;;10.20;50.80;;;;;;5086648;28;20091;-66
2023/04/06 08:12:14;;;;;;;17.25;12.20;;;10.20;51.00;;;;;;5084549;28;20051;-65
2023/04/06 08:14:40;;;;;;;15.80;11.07;;;10.10;51.20;;;;;;5089413;28;20391;-66
2023/04/06 08:17:05;;;;;;;17.50;12.55;;;10.10;51.30;;;;;;5089101;28;20073;-66
2023/04/06 08:19:31;;;;;;;19.23;13.27;;;10.10;51.50;;;;;;5084817;28;20490;-66
2023/04/06 08:21:57;;;;;;;19.35;12.32;;;10.00;51.70;;;;;;5090231;28;20111;-66
2023/04/06 08:24:22;;;;;;;21.10;12.95;;;9.90;51.90;;;;;;5090601;28;20028;-66
2023/04/06 08:26:48;;;;;;;18.75;11.60;;;10.00;52.20;;;;;;5082343;28;20039;-66
2023/04/06 08:29:14;;;;;;;17.60;12.88;;;10.00;52.30;;;;;;5084905;28;20435;-66
2023/04/06 08:31:39;;;;;;;18.80;12.40;;;10.00;52.60;;;;;;5088329;28;20024;-65
2023/04/06 08:34:05;;;;;;;18.42;12.63;;;10.00;52.80;;;;;;5082601;28;20020;-67
2023/04/06 08:36:31;;;;;;;18.98;13.65;;;10.00;52.70;;;;;;5086998;28;20024;-66
2023/04/06 08:38:57;;;;;;;16.70;10.52;;;10.00;53.10;;;;;;5089422;28;20101;-65
2023/04/06 08:41:22;;;;;;;17.52;11.45;;;10.10;53.00;;;;;;5089485;28;20043;-66
2023/04/06 08:44:02;;;;;;;17.52;12.57;;;10.20;53.10;;;;;;5090347;28;20020;-65
2023/04/06 08:46:30;;;;;;;19.42;11.30;;;10.20;53.20;;;;;;5085241;28;20063;-68
2023/04/06 08:49:01;;;;;;;17.63;11.45;;;10.30;53.20;;;;;;5084744;28;20031;-65
2023/04/06 08:51:27;;;;;;;15.32;10.45;;;10.40;52.90;;;;;;5084725;28;20398;-64
2023/04/06 08:53:58;;;;;;;15.38;10.77;;;10.60;52.70;;;;;;5083531;28;20505;-66
2023/04/06 08:56:25;;;;;;;20.58;12.82;;;10.70;52.50;;;;;;5086325;28;20020;-66
2023/04/06 08:58:52;;;;;;;18.60;12.38;;;10.70;52.30;;;;;;5087402;28;20497;-65
2023/04/06 09:01:21;;;;;;;18.55;12.25;;;10.70;51.90;;;;;;5085419;28;20020;-66
2023/04/06 09:03:49;;;;;;;18.10;11.70;;;10.60;51.70;;;;;;5087102;28;20024;-65
2023/04/06 09:06:15;;;;;;;16.73;11.43;;;10.70;51.60;;;;;;5089145;28;20106;-65
2023/04/06 09:08:41;;;;;;;16.95;11.57;;;10.80;51.50;;;;;;5086686;28;20102;-64
2023/04/06 09:11:08;;;;;;;21.50;14.55;;;10.90;51.10;;;;;;5088288;28;20062;-65
2023/04/06 09:13:51;;;;;;;18.02;12.70;;;10.80;50.90;;;;;;5087075;28;20746;-62
2023/04/06 09:16:17;;;;;;;20.73;12.98;;;10.80;51.10;;;;;;5089136;28;20065;-66
2023/04/06 09:18:43;;;;;;;17.58;12.80;;;10.80;51.30;;;;;;5089056;28;20502;-64
2023/04/06 09:21:09;;;;;;;18.30;11.50;;;10.90;51.40;;;;;;5086820;28;20024;-65
2023/04/06 09:23:35;;;;;;;18.50;13.30;;;11.00;51.50;;;;;;5086001;28;20359;-66
2023/04/06 09:26:08;;;;;;;21.90;15.23;;;11.00;51.50;;;;;;5087946;28;20027;-67
2023/04/06 09:28:53;;;;;;;18.88;13.43;;;11.10;51.10;;;;;;5085242;28;20082;-67
2023/04/06 09:31:28;;;;;;;19.55;13.52;;;11.10;51.00;;;;;;5088722;28;20024;-67
2023/04/06 09:33:54;;;;;;;23.02;12.50;;;11.20;51.10;;;;;;5085675;28;20071;-66
2023/04/06 09:36:33;;;;;;;19.63;13.65;;;11.20;51.20;;;;;;5086799;28;20072;-65
2023/04/06 09:39:02;;;;;;;17.63;12.30;;;11.20;51.40;;;;;;5083907;28;20016;-65
2023/04/06 09:41:30;;;;;;;19.20;14.55;;;11.30;51.50;;;;;;5082468;28;20024;-66
2023/04/06 09:44:06;;;;;;;19.95;13.18;;;11.30;51.20;;;;;;5087443;28;20100;-69
2023/04/06 09:46:34;;;;;;;20.17;14.13;;;11.50;51.20;;;;;;5086537;28;20040;-67
2023/04/06 09:49:03;;;;;;;23.23;15.25;;;11.50;51.30;;;;;;5085812;28;20020;-68
2023/04/06 09:51:35;;;;;;;19.48;13.93;;;11.40;52.10;;;;;;5081898;28;20063;-65
2023/04/06 09:54:03;;;;;;;20.35;13.25;;;11.40;51.90;;;;;;5078414;28;20017;-67
2023/04/06 09:56:33;;;;;;;21.10;15.40;;;11.60;51.70;;;;;;5088483;28;20367;-65
2023/04/06 09:59:05;;;;;;;19.10;13.05;;;11.70;51.60;;;;;;5084709;28;20040;-65
2023/04/06 10:01:32;;;;;;;16.85;12.95;;;11.80;51.70;;;;;;5086720;28;20451;-66
2023/04/06 10:04:26;;;;;;;17.95;13.40;;;12.00;51.60;;;;;;5088532;28;20438;-67
2023/04/06 10:06:52;;;;;;;21.80;14.50;;;12.10;51.20;;;;;;5086188;28;20542;-65
2023/04/06 10:09:23;;;;;;;22.05;15.65;;;12.30;51.00;;;;;;5088046;28;20024;-66
2023/04/06 10:11:50;;;;;;;21.00;14.75;;;12.20;50.60;;;;;;5082935;28;20024;-68
2023/04/06 10:14:16;;;;;;;19.75;14.02;;;12.20;50.70;;;;;;5087709;28;20110;-66
2023/04/06 10:16:42;;;;;;;20.15;13.15;;;12.30;50.60;;;;;;5088347;28;20424;-66
2023/04/06 10:19:15;;;;;;;24.95;16.02;;;12.40;50.60;;;;;;5085504;28;20442;-66
2023/04/06 10:21:44;;;;;;;27.17;18.63;;;12.60;50.40;;;;;;5086590;28;20123;-67
2023/04/06 10:24:10;;;;;;;26.30;14.85;;;12.60;49.80;;;;;;5087067;28;20020;-66
2023/04/06 10:26:36;;;;;;;22.45;15.80;;;12.50;49.90;;;;;;5087634;28;20482;-66
2023/04/06 10:29:05;;;;;;;18.95;13.00;;;12.50;50.00;;;;;;5088389;28;20026;-67
2023/04/06 10:31:31;;;;;;;19.48;12.70;;;12.50;50.70;;;;;;5088621;28;20024;-67
2023/04/06 10:33:59;;;;;;;17.40;12.27;;;12.60;50.00;;;;;;5088402;28;20081;-67
2023/04/06 10:36:27;;;;;;;18.67;12.65;;;12.60;50.20;;;;;;5086917;28;20615;-66
2023/04/06 10:39:05;;;;;;;16.08;11.30;;;12.60;50.30;;;;;;5086089;28;20024;-66
2023/04/06 10:41:46;;;;;;;19.48;12.60;;;12.70;50.40;;;;;;5087495;28;20058;-66
2023/04/06 10:44:21;;;;;;;22.23;14.77;;;12.70;50.50;;;;;;5084791;28;20056;-66
2023/04/06 10:47:00;;;;;;;19.48;13.38;;;12.50;50.30;;;;;;5083165;28;20031;-67
2023/04/06 10:49:26;;;;;;;15.38;10.20;;;12.50;50.60;;;;;;5084742;28;20653;-66
2023/04/06 10:51:54;;;;;;;19.38;13.57;;;12.70;50.70;;;;;;5087053;28;20012;-66
2023/04/06 10:54:22;;;;;;;18.30;12.90;;;12.60;51.00;;;;;;5087946;28;20098;-67
2023/04/06 10:56:48;;;;;;;17.70;12.75;;;12.60;51.00;;;;;;5086948;28;20102;-67
2023/04/06 10:59:18;;;;;;;21.60;14.70;;;12.70;50.90;;;;;;5086795;28;20112;-67
2023/04/06 11:01:46;;;;;;;19.17;12.98;;;12.70;51.20;;;;;;5087052;28;20024;-66
2023/04/06 11:04:19;;;;;;;16.63;11.68;;;12.70;51.30;;;;;;5086865;28;20533;-66
2023/04/06 11:06:49;;;;;;;15.38;11.40;;;12.80;51.40;;;;;;5085061;28;20032;-67
2023/04/06 11:09:25;;;;;;;17.27;13.00;;;12.90;51.40;;;;;;5083795;28;20020;-67
2023/04/06 11:11:52;;;;;;;15.07;11.32;;;12.80;51.40;;;;;;5088331;28;20552;-67
2023/04/06 11:14:17;;;;;;;16.35;11.43;;;12.90;51.60;;;;;;5084881;28;20020;-67
2023/04/06 11:16:48;;;;;;;17.88;13.48;;;12.90;51.70;;;;;;5086445;28;20073;-67
2023/04/06 11:19:13;;;;;;;16.48;12.23;;;12.90;51.90;;;;;;5084639;28;20036;-67
2023/04/06 11:21:46;;;;;;;15.25;12.48;;;12.90;52.30;;;;;;5087968;28;20031;-67
2023/04/06 11:24:23;;;;;;;15.63;10.52;;;12.80;52.30;;;;;;5087890;28;20104;-67
2023/04/06 11:26:56;;;;;;;15.40;11.85;;;12.90;52.60;;;;;;5081932;28;20086;-67
2023/04/06 11:29:23;;;;;;;14.93;12.15;;;13.00;52.80;;;;;;5085516;28;20031;-67
2023/04/06 11:31:53;;;;;;;14.68;10.90;;;13.00;53.00;;;;;;5086900;28;20095;-66
2023/04/06 11:34:24;;;;;;;14.70;11.10;;;13.00;53.00;;;;;;5088507;28;20052;-67
2023/04/06 11:36:56;;;;;;;16.90;12.65;;;13.00;53.40;;;;;;5090843;28;20106;-67
2023/04/06 11:39:24;;;;;;;13.98;10.23;;;13.10;53.60;;;;;;5088122;28;20078;-66
2023/04/06 11:41:55;;;;;;;15.90;10.43;;;13.10;53.60;;;;;;5091540;28;20162;-67
2023/04/06 11:44:42;;;;;;;13.82;10.32;;;13.10;53.80;;;;;;5090054;28;20028;-67
2023/04/06 11:47:09;;;;;;;14.13;9.98;;;13.00;54.10;;;;;;5088848;28;20036;-65
2023/04/06 11:49:40;;;;;;;12.43;9.38;;;13.00;54.30;;;;;;5089251;28;20016;-66
2023/04/06 11:52:19;;;;;;;11.23;8.52;;;13.00;54.70;;;;;;5088685;28;20028;-65
2023/04/06 11:54:46;;;;;;;13.18;10.10;;;12.90;55.50;;;;;;5089827;28;20044;-65
2023/04/06 11:57:11;;;;;;;13.77;9.63;;;12.90;56.30;;;;;;5089008;28;20111;-66
2023/04/06 11:59:37;;;;;;;13.18;8.98;;;12.60;56.90;;;;;;5086906;28;20157;-65
2023/04/06 12:02:03;;;;;;;11.90;9.57;;;12.50;57.70;;;;;;5087339;28;20406;-64
2023/04/06 12:04:29;;;;;;;13.15;9.75;;;12.30;58.80;;;;;;5087088;28;20383;-65
2023/04/06 12:06:55;;;;;;;13.82;9.52;;;12.20;59.50;;;;;;5086495;28;20062;-64
2023/04/06 12:09:21;;;;;;;12.27;9.05;;;12.10;60.10;;;;;;5088269;28;20563;-64
2023/04/06 12:11:46;;;;;;;11.15;7.88;;;12.00;61.20;;;;;;5089832;28;20105;-65
2023/04/06 12:14:13;;;;;;;13.88;9.48;;;12.00;61.50;;;;;;5086332;28;20034;-65
2023/04/06 12:16:39;;;;;;;13.25;9.48;;;11.90;62.00;;;;;;5090266;28;20044;-66
2023/04/06 12:19:05;;;;;;;13.43;9.45;;;11.80;62.70;;;;;;5085516;28;20032;-66
2023/04/06 12:21:31;;;;;;;12.30;9.38;;;11.70;63.10;;;;;;5090545;28;20030;-65
2023/04/06 12:24:00;;;;;;;10.95;7.72;;;11.60;63.80;;;;;;5089965;28;20020;-65
2023/04/06 12:26:27;;;;;;;10.85;8.55;;;11.50;63.80;;;;;;5085813;28;20024;-65
2023/04/06 12:28:52;;;;;;;12.35;8.77;;;11.40;64.60;;;;;;5077727;28;20073;-67
2023/04/06 12:31:19;;;;;;;11.85;9.20;;;11.30;65.00;;;;;;5088682;28;20441;-65
2023/04/06 12:33:49;;;;;;;11.88;9.50;;;11.20;65.40;;;;;;5083680;28;20058;-65
2023/04/06 12:36:18;;;;;;;12.40;9.23;;;11.00;66.20;;;;;;5087563;28;20027;-66
2023/04/06 12:38:47;;;;;;;13.43;8.50;;;10.90;66.90;;;;;;5088324;28;20081;-65